createdAt,value
2018-11-28T00:00:02.030Z,17.13
2018-11-28T00:02:35.039Z,15.33
2018-11-28T00:05:10.003Z,16.40
2018-11-28T00:07:55.623Z,16.73
2018-11-28T00:10:32.592Z,13.30
2018-11-28T00:13:11.078Z,15.00
2018-11-28T00:15:42.019Z,16.23
2018-11-28T00:18:13.955Z,14.17
2018-11-28T00:20:51.088Z,12.63
2018-11-28T00:23:22.077Z,14.50
2018-11-28T00:25:58.704Z,13.07
2018-11-28T00:28:25.313Z,13.80
2018-11-28T00:31:01.027Z,12.83
2018-11-28T00:33:34.164Z,12.23
2018-11-28T00:36:07.167Z,14.90
2018-11-28T00:38:38.142Z,14.17
2018-11-28T00:41:10.202Z,14.00
2018-11-28T00:43:43.822Z,13.43
2018-11-28T00:46:15.483Z,14.30
2018-11-28T00:48:46.424Z,15.57
2018-11-28T00:51:18.472Z,15.43
2018-11-28T00:53:53.911Z,14.37
2018-11-28T00:56:25.355Z,15.20
2018-11-28T00:58:57.125Z,15.50
2018-11-28T01:01:28.160Z,14.30
2018-11-28T01:04:00.386Z,14.57
2018-11-28T01:06:31.178Z,15.57
2018-11-28T01:09:04.263Z,15.63
2018-11-28T01:11:36.084Z,15.70
2018-11-28T01:14:07.392Z,15.60
2018-11-28T01:16:38.091Z,15.40
2018-11-28T01:19:08.670Z,17.27
2018-11-28T01:21:39.471Z,16.50
2018-11-28T01:24:10.239Z,15.90
2018-11-28T01:26:41.092Z,16.13
2018-11-28T01:29:11.664Z,15.53
2018-11-28T01:31:45.047Z,15.43
2018-11-28T01:34:18.692Z,16.03
2018-11-28T01:36:54.000Z,14.80
2018-11-28T01:39:25.405Z,14.23
2018-11-28T01:41:56.282Z,13.60
2018-11-28T01:44:36.422Z,14.33
2018-11-28T01:47:09.470Z,14.67
2018-11-28T01:49:40.559Z,14.60
2018-11-28T01:52:13.585Z,14.53
2018-11-28T01:54:44.732Z,13.67
2018-11-28T01:57:17.582Z,14.83
2018-11-28T01:59:48.406Z,14.27
2018-11-28T02:02:19.444Z,13.20
2018-11-28T02:04:52.547Z,14.37
2018-11-28T02:07:24.423Z,13.70
2018-11-28T02:09:56.668Z,13.47
2018-11-28T02:12:27.559Z,12.00
2018-11-28T02:14:58.413Z,14.07
2018-11-28T02:17:31.786Z,13.57
2018-11-28T02:20:08.688Z,12.93
2018-11-28T02:22:39.278Z,13.43
2018-11-28T02:25:12.010Z,14.80
2018-11-28T02:27:55.395Z,14.40
2018-11-28T02:30:26.068Z,13.23
2018-11-28T02:32:57.047Z,13.27
2018-11-28T02:35:28.919Z,14.87
2018-11-28T02:38:01.613Z,13.67
2018-11-28T02:40:32.513Z,13.60
2018-11-28T02:43:08.365Z,14.30
2018-11-28T02:45:40.019Z,13.77
2018-11-28T02:48:14.240Z,13.00
2018-11-28T02:50:55.696Z,14.80
2018-11-28T02:53:28.787Z,14.20
2018-11-28T02:55:59.687Z,13.47
2018-11-28T02:58:31.702Z,15.10
2018-11-28T03:01:03.863Z,14.03
2018-11-28T03:03:34.784Z,15.80
2018-11-28T03:06:06.205Z,15.50
2018-11-28T03:08:38.941Z,12.50
2018-11-28T03:11:12.531Z,14.23
2018-11-28T03:13:45.660Z,13.40
2018-11-28T03:16:19.637Z,11.70
2018-11-28T03:18:50.307Z,13.30
2018-11-28T03:21:22.965Z,14.60
2018-11-28T03:23:54.997Z,15.57
2018-11-28T03:26:27.994Z,14.60
2018-11-28T03:28:59.092Z,14.80
2018-11-28T03:31:30.159Z,12.83
2018-11-28T03:34:01.640Z,14.07
2018-11-28T03:36:34.646Z,15.27
2018-11-28T03:39:09.578Z,13.23
2018-11-28T03:41:45.015Z,14.00
2018-11-28T03:44:15.836Z,13.70
2018-11-28T03:46:46.094Z,12.87
2018-11-28T03:49:17.031Z,12.43
2018-11-28T03:51:47.859Z,13.37
2018-11-28T03:54:18.773Z,13.70
2018-11-28T03:56:49.396Z,13.23
2018-11-28T03:59:23.806Z,12.10
2018-11-28T04:01:59.672Z,12.37
2018-11-28T04:04:34.877Z,12.73
2018-11-28T04:07:05.942Z,12.20
2018-11-28T04:09:37.090Z,12.73
2018-11-28T04:12:13.658Z,13.30
2018-11-28T04:14:53.790Z,12.10
2018-11-28T04:17:27.012Z,13.50
2018-11-28T04:20:01.032Z,12.80
2018-11-28T04:22:35.125Z,13.23
2018-11-28T04:25:09.862Z,12.07
2018-11-28T04:27:41.230Z,11.27
2018-11-28T04:30:17.015Z,12.17
2018-11-28T04:32:49.723Z,12.40
2018-11-28T04:38:16.783Z,12.60
2018-11-28T04:40:48.764Z,12.53
2018-11-28T04:43:19.589Z,13.53
2018-11-28T04:45:52.287Z,12.00
2018-11-28T04:48:25.351Z,13.80
2018-11-28T04:50:58.402Z,12.63
2018-11-28T04:53:32.009Z,12.67
2018-11-28T04:56:08.025Z,13.87
2018-11-28T04:58:50.163Z,12.17
2018-11-28T05:01:24.190Z,14.10
2018-11-28T05:03:55.146Z,13.27
2018-11-28T05:07:35.963Z,12.93
2018-11-28T05:10:41.124Z,14.60
2018-11-28T05:13:13.235Z,13.90
2018-11-28T05:15:46.670Z,13.53
2018-11-28T05:18:22.100Z,13.37
2018-11-28T05:20:55.374Z,14.10
2018-11-28T05:23:26.563Z,14.13
2018-11-28T05:25:58.436Z,13.33
2018-11-28T05:28:30.386Z,12.70
2018-11-28T05:31:01.947Z,13.73
2018-11-28T05:33:32.788Z,14.00
2018-11-28T05:36:05.668Z,14.43
2018-11-28T05:38:39.371Z,13.67
2018-11-28T05:41:10.515Z,14.10
2018-11-28T05:43:43.054Z,14.60
2018-11-28T05:46:14.662Z,12.70
2018-11-28T05:48:45.320Z,13.77
2018-11-28T05:51:15.979Z,14.53
2018-11-28T05:53:47.034Z,12.80
2018-11-28T05:56:19.169Z,12.77
2018-11-28T05:58:51.299Z,13.50
2018-11-28T06:01:21.865Z,12.07
2018-11-28T06:03:52.664Z,11.80
2018-11-28T06:06:23.676Z,12.37
2018-11-28T06:08:54.182Z,11.47
2018-11-28T06:11:25.312Z,13.07
2018-11-28T06:13:56.016Z,12.80
2018-11-28T06:16:28.530Z,11.87
2018-11-28T06:18:59.833Z,11.70
2018-11-28T06:21:34.114Z,12.60
2018-11-28T06:24:09.754Z,12.20
2018-11-28T06:26:40.537Z,11.20
2018-11-28T06:29:13.944Z,12.07
2018-11-28T06:31:44.627Z,12.67
2018-11-28T06:34:15.151Z,12.93
2018-11-28T06:36:45.406Z,12.23
2018-11-28T06:39:16.207Z,12.67
2018-11-28T06:41:46.756Z,12.30
2018-11-28T06:44:17.562Z,13.13
2018-11-28T06:46:48.207Z,12.50
2018-11-28T06:49:18.740Z,12.30
2018-11-28T06:51:49.502Z,12.47
2018-11-28T06:54:20.119Z,11.40
2018-11-28T06:56:51.648Z,11.73
2018-11-28T06:59:22.462Z,11.50
2018-11-28T07:02:00.280Z,12.40
2018-11-28T07:04:38.589Z,12.30
2018-11-28T07:07:09.401Z,12.30
2018-11-28T07:09:40.230Z,11.70
2018-11-28T07:12:11.069Z,11.80
2018-11-28T07:14:41.747Z,11.93
2018-11-28T07:17:13.080Z,12.80
2018-11-28T07:19:45.902Z,12.20
2018-11-28T07:22:16.739Z,11.83
2018-11-28T07:24:49.911Z,11.53
2018-11-28T07:27:24.083Z,12.13
2018-11-28T07:29:54.940Z,11.80
2018-11-28T07:32:25.800Z,12.87
2018-11-28T07:34:58.951Z,11.17
2018-11-28T07:37:32.053Z,10.90
2018-11-28T07:40:03.221Z,11.10
2018-11-28T07:42:33.850Z,11.20
2018-11-28T07:45:05.197Z,12.07
2018-11-28T07:47:38.078Z,12.10
2018-11-28T07:50:13.147Z,11.60
2018-11-28T07:52:45.092Z,10.90
2018-11-28T07:55:19.805Z,11.93
2018-11-28T07:57:53.273Z,10.53
2018-11-28T08:00:25.871Z,11.20
2018-11-28T08:02:59.153Z,10.27
2018-11-28T08:05:39.543Z,11.60
2018-11-28T08:08:11.391Z,10.77
2018-11-28T08:10:41.700Z,10.83
2018-11-28T08:13:13.025Z,11.30
2018-11-28T08:15:43.409Z,12.90
2018-11-28T08:18:13.932Z,10.60
2018-11-28T08:20:44.785Z,10.67
2018-11-28T08:23:15.554Z,10.73
2018-11-28T08:25:46.156Z,11.53
2018-11-28T08:28:19.515Z,12.17
2018-11-28T08:30:50.822Z,10.80
2018-11-28T08:33:25.682Z,10.33
2018-11-28T08:35:56.956Z,10.47
2018-11-28T08:38:29.195Z,9.73
2018-11-28T08:41:03.567Z,14.57
2018-11-28T08:43:35.035Z,10.37
2018-11-28T08:46:05.828Z,10.23
2018-11-28T08:48:36.360Z,9.93
2018-11-28T08:51:06.805Z,10.53
2018-11-28T08:53:37.710Z,11.37
2018-11-28T08:56:08.303Z,10.17
2018-11-28T08:58:38.807Z,8.40
2018-11-28T09:01:09.311Z,15.83
2018-11-28T09:03:40.021Z,10.00
2018-11-28T09:06:10.997Z,12.40
2018-11-28T09:08:41.542Z,9.87
2018-11-28T09:11:11.869Z,10.80
2018-11-28T09:13:42.741Z,14.97
2018-11-28T09:16:13.266Z,10.70
2018-11-28T09:18:44.477Z,20.33
2018-11-28T09:21:15.456Z,12.77
2018-11-28T09:23:46.769Z,10.23
2018-11-28T09:26:19.246Z,10.40
2018-11-28T09:28:50.691Z,8.70
2018-11-28T09:31:26.451Z,10.63
2018-11-28T09:33:59.512Z,10.70
2018-11-28T09:36:32.276Z,9.90
2018-11-28T09:39:06.159Z,8.70
2018-11-28T09:41:38.250Z,8.93
2018-11-28T09:44:10.458Z,9.70
2018-11-28T09:46:46.515Z,10.53
2018-11-28T09:49:19.499Z,9.40
2018-11-28T09:51:50.612Z,9.30
2018-11-28T09:54:22.667Z,8.83
2018-11-28T09:56:54.298Z,8.63
2018-11-28T09:59:28.378Z,9.10
2018-11-28T10:02:03.511Z,8.63
2018-11-28T10:04:39.415Z,9.80
2018-11-28T10:07:12.693Z,8.27
2018-11-28T10:09:43.365Z,8.67
2018-11-28T10:12:14.339Z,9.40
2018-11-28T10:14:45.189Z,8.07
2018-11-28T10:17:16.079Z,8.47
2018-11-28T10:19:46.706Z,9.40
2018-11-28T10:22:17.445Z,9.03
2018-11-28T10:24:48.261Z,10.20
2018-11-28T10:27:25.854Z,9.40
2018-11-28T10:29:56.873Z,9.60
2018-11-28T10:32:29.675Z,9.20
2018-11-28T10:35:02.422Z,9.03
2018-11-28T10:37:34.641Z,10.70
2018-11-28T10:42:59.618Z,9.73
2018-11-28T10:48:39.110Z,8.70
2018-11-28T10:51:10.084Z,10.10
2018-11-28T10:53:40.883Z,9.40
2018-11-28T10:56:11.414Z,10.53
2018-11-28T10:58:42.288Z,9.53
2018-11-28T11:01:18.447Z,9.90
2018-11-28T11:04:30.943Z,9.10
2018-11-28T11:07:08.409Z,10.77
2018-11-28T11:09:47.862Z,9.70
2018-11-28T11:12:24.352Z,9.83
2018-11-28T11:14:55.753Z,9.47
2018-11-28T11:17:32.306Z,10.37
2018-11-28T11:20:02.988Z,10.17
2018-11-28T11:22:33.693Z,9.93
2018-11-28T11:25:05.070Z,9.77
2018-11-28T11:27:35.671Z,9.13
2018-11-28T11:30:09.527Z,9.60
2018-11-28T11:32:40.097Z,9.30
2018-11-28T11:35:12.640Z,9.13
2018-11-28T11:38:01.220Z,9.13
2018-11-28T11:40:33.080Z,9.40
2018-11-28T11:43:08.739Z,10.30
2018-11-28T11:45:39.882Z,9.77
2018-11-28T11:48:11.259Z,9.90
2018-11-28T11:50:41.798Z,10.57
2018-11-28T11:53:12.625Z,10.13
2018-11-28T11:55:42.979Z,10.07
2018-11-28T11:58:13.902Z,9.67
2018-11-28T12:00:46.444Z,10.17
2018-11-28T12:03:18.329Z,9.60
2018-11-28T12:05:56.708Z,9.57
2018-11-28T12:08:29.972Z,9.60
2018-11-28T12:11:02.207Z,8.97
2018-11-28T12:13:33.118Z,9.87
2018-11-28T12:16:04.069Z,7.80
2018-11-28T12:18:34.799Z,8.57
2018-11-28T12:21:07.448Z,6.90
2018-11-28T12:23:39.217Z,7.87
2018-11-28T12:26:13.119Z,7.53
2018-11-28T12:28:45.970Z,9.50
2018-11-28T12:31:19.620Z,7.30
2018-11-28T12:33:51.106Z,8.10
2018-11-28T12:36:23.537Z,6.93
2018-11-28T12:38:55.325Z,7.80
2018-11-28T12:41:26.899Z,8.40
2018-11-28T12:43:57.466Z,8.37
2018-11-28T12:46:31.788Z,7.43
2018-11-28T12:49:07.027Z,7.40
2018-11-28T12:51:38.205Z,6.90
2018-11-28T12:54:14.480Z,9.23
2018-11-28T12:56:45.236Z,6.63
2018-11-28T12:59:15.587Z,8.03
2018-11-28T13:01:46.521Z,8.40
2018-11-28T13:04:22.165Z,8.33
2018-11-28T13:06:54.022Z,8.63
2018-11-28T13:09:26.488Z,7.23
2018-11-28T13:12:00.077Z,7.47
2018-11-28T13:14:34.395Z,8.80
2018-11-28T13:17:04.818Z,7.93
2018-11-28T13:19:35.728Z,8.87
2018-11-28T13:22:07.188Z,9.50
2018-11-28T13:24:39.544Z,8.47
2018-11-28T13:27:11.311Z,8.50
2018-11-28T13:29:44.475Z,8.40
2018-11-28T13:32:17.898Z,8.67
2018-11-28T13:34:48.923Z,7.07
2018-11-28T13:37:20.765Z,7.50
2018-11-28T13:39:52.592Z,7.83
2018-11-28T13:42:23.573Z,8.90
2018-11-28T13:44:56.828Z,8.70
2018-11-28T13:47:29.685Z,9.30
2018-11-28T13:50:00.381Z,9.27
2018-11-28T13:52:31.423Z,9.97
2018-11-28T13:55:37.812Z,9.20
2018-11-28T13:57:37.807Z,8.50
2018-11-28T14:00:11.273Z,8.53
2018-11-28T14:02:42.140Z,9.23
2018-11-28T14:05:27.993Z,7.70
2018-11-28T14:08:00.577Z,7.97
2018-11-28T14:10:31.231Z,8.37
2018-11-28T14:13:01.797Z,8.13
2018-11-28T14:15:42.541Z,7.43
2018-11-28T14:18:19.074Z,10.00
2018-11-28T14:20:51.144Z,8.43
2018-11-28T14:23:25.588Z,8.20
2018-11-28T14:25:59.698Z,9.63
2018-11-28T14:28:35.621Z,7.33
2018-11-28T14:37:22.841Z,29.37
2018-11-28T14:39:55.751Z,17.80
2018-11-28T14:42:26.773Z,10.60
2018-11-28T14:44:57.293Z,8.10
2018-11-28T14:47:27.842Z,15.93
2018-11-28T14:49:58.365Z,9.67
2018-11-28T14:52:28.951Z,8.60
2018-11-28T14:55:00.070Z,9.40
2018-11-28T14:57:31.187Z,8.53
2018-11-28T15:00:03.457Z,8.47
2018-11-28T15:02:35.164Z,11.67
2018-11-28T15:05:11.203Z,18.40
2018-11-28T15:07:42.035Z,8.00
2018-11-28T15:10:15.076Z,8.80
2018-11-28T15:12:46.800Z,9.87
2018-11-28T15:15:34.855Z,8.60
2018-11-28T15:18:05.934Z,9.97
2018-11-28T15:20:38.988Z,10.13
2018-11-28T15:23:12.770Z,8.77
2018-11-28T15:25:46.058Z,9.30
2018-11-28T15:28:19.022Z,9.77
2018-11-28T15:30:50.202Z,9.37
2018-11-28T15:33:23.259Z,7.57
2018-11-28T15:35:54.114Z,8.47
2018-11-28T15:39:27.876Z,9.80
2018-11-28T15:42:01.827Z,8.80
2018-11-28T15:44:39.135Z,8.57
2018-11-28T15:47:12.481Z,10.00
2018-11-28T15:49:45.445Z,10.50
2018-11-28T15:52:16.127Z,9.67
2018-11-28T15:54:47.563Z,8.87
2018-11-28T15:57:20.038Z,8.10
2018-11-28T15:59:51.174Z,7.93
2018-11-28T16:02:24.602Z,9.23
2018-11-28T16:04:56.186Z,9.17
2018-11-28T16:07:29.181Z,8.93
2018-11-28T16:10:05.352Z,8.70
2018-11-28T16:12:43.890Z,8.70
2018-11-28T16:15:26.529Z,9.20
2018-11-28T16:17:57.134Z,10.27
2018-11-28T16:20:30.665Z,9.17
2018-11-28T16:23:04.185Z,9.57
2018-11-28T16:25:40.407Z,8.23
2018-11-28T16:28:12.469Z,9.50
2018-11-28T16:30:46.462Z,11.70
2018-11-28T16:33:18.447Z,10.60
2018-11-28T16:35:54.914Z,9.80
2018-11-28T16:38:25.995Z,10.23
2018-11-28T16:40:59.412Z,12.57
2018-11-28T16:43:32.510Z,11.67
2018-11-28T16:46:04.404Z,13.03
2018-11-28T16:48:38.414Z,12.77
2018-11-28T16:51:09.161Z,11.27
2018-11-28T16:53:40.788Z,13.10
2018-11-28T16:56:13.565Z,14.00
2018-11-28T16:58:46.363Z,17.13
2018-11-28T17:01:17.366Z,14.50
2018-11-28T17:03:52.969Z,18.70
2018-11-28T17:06:26.625Z,19.00
2018-11-28T17:08:58.710Z,19.17
2018-11-28T17:11:30.551Z,22.40
2018-11-28T17:14:10.953Z,22.87
2018-11-28T17:16:44.972Z,23.30
2018-11-28T17:19:16.545Z,26.17
2018-11-28T17:21:48.917Z,27.70
2018-11-28T17:24:22.021Z,28.77
2018-11-28T17:26:57.729Z,27.63
2018-11-28T17:29:28.671Z,27.40
2018-11-28T17:31:59.399Z,31.67
2018-11-28T17:34:30.699Z,30.40
2018-11-28T17:37:03.742Z,28.50
2018-11-28T17:39:37.443Z,29.30
2018-11-28T17:42:08.708Z,26.93
2018-11-28T17:44:41.698Z,27.50
2018-11-28T17:47:12.303Z,28.20
2018-11-28T17:49:54.771Z,28.60
2018-11-28T17:52:27.091Z,26.50
2018-11-28T17:54:58.618Z,27.80
2018-11-28T17:57:29.466Z,29.60
2018-11-28T18:00:00.053Z,28.77
2018-11-28T18:02:30.706Z,29.27
2018-11-28T18:05:04.005Z,29.63
2018-11-28T18:07:39.207Z,29.40
2018-11-28T18:10:27.332Z,27.13
2018-11-28T18:13:12.661Z,28.40
2018-11-28T18:15:45.814Z,27.40
2018-11-28T18:18:21.309Z,28.13
2018-11-28T18:20:57.086Z,35.47
2018-11-28T18:23:28.720Z,27.17
2018-11-28T18:26:00.494Z,28.13
2018-11-28T18:28:31.197Z,29.37
2018-11-28T18:31:02.359Z,27.23
2018-11-28T18:33:35.036Z,26.30
2018-11-28T18:36:05.850Z,28.47
2018-11-28T18:38:39.968Z,27.93
2018-11-28T18:41:13.100Z,26.40
2018-11-28T18:43:44.109Z,28.77
2018-11-28T18:46:15.073Z,25.77
2018-11-28T18:48:49.044Z,28.87
2018-11-28T18:51:19.990Z,25.73
2018-11-28T18:53:52.217Z,27.57
2018-11-28T18:56:24.072Z,26.50
2018-11-28T18:58:57.007Z,28.33
2018-11-28T19:01:30.053Z,27.77
2018-11-28T19:04:01.163Z,26.60
2018-11-28T19:06:36.498Z,27.97
2018-11-28T19:09:10.728Z,28.37
2018-11-28T19:11:46.756Z,28.70
2018-11-28T19:14:17.921Z,29.37
2018-11-28T19:16:57.098Z,34.53
2018-11-28T19:19:30.347Z,29.10
2018-11-28T19:22:04.298Z,26.77
2018-11-28T19:24:35.399Z,28.80
2018-11-28T19:27:09.853Z,29.33
2018-11-28T19:29:42.209Z,29.77
2018-11-28T19:32:13.479Z,28.90
2018-11-28T19:34:46.335Z,28.30
2018-11-28T19:37:18.194Z,28.80
2018-11-28T19:39:53.942Z,29.40
2018-11-28T19:42:25.365Z,30.60
2018-11-28T19:44:58.421Z,27.00
2018-11-28T19:47:30.892Z,29.10
2018-11-28T19:50:26.982Z,30.53
2018-11-28T19:52:58.866Z,29.00
2018-11-28T19:55:39.103Z,28.13
2018-11-28T19:58:12.041Z,29.17
2018-11-28T20:00:46.690Z,30.87
2018-11-28T20:03:19.021Z,29.90
2018-11-28T20:05:59.948Z,31.00
2018-11-28T20:08:32.574Z,29.30
2018-11-28T20:11:07.171Z,29.20
2018-11-28T20:13:40.473Z,30.30
2018-11-28T20:18:49.023Z,30.20
2018-11-28T20:21:21.415Z,28.67
2018-11-28T20:23:53.848Z,30.00
2018-11-28T20:26:25.821Z,31.13
2018-11-28T20:29:07.923Z,31.03
2018-11-28T20:31:44.219Z,31.13
2018-11-28T20:34:16.533Z,30.87
2018-11-28T20:36:47.819Z,30.20
2018-11-28T20:39:20.313Z,30.77
2018-11-28T20:41:51.736Z,30.67
2018-11-28T20:44:23.768Z,31.03
2018-11-28T20:47:04.164Z,30.47
2018-11-28T20:49:32.916Z,29.37
2018-11-28T20:52:03.742Z,28.60
2018-11-28T20:54:35.027Z,30.97
2018-11-28T20:57:08.155Z,28.20
2018-11-28T20:59:44.857Z,29.77
2018-11-28T21:02:15.672Z,30.37
2018-11-28T21:04:46.771Z,29.03
2018-11-28T21:07:17.397Z,28.80
2018-11-28T21:09:54.079Z,28.67
2018-11-28T21:12:29.720Z,30.07
2018-11-28T21:15:01.673Z,29.63
2018-11-28T21:17:34.081Z,29.47
2018-11-28T21:20:13.287Z,28.63
2018-11-28T21:22:46.326Z,27.07
2018-11-28T21:25:23.792Z,27.53
2018-11-28T21:28:06.642Z,30.10
2018-11-28T21:30:38.236Z,29.10
2018-11-28T21:33:13.334Z,29.80
2018-11-28T21:35:48.798Z,28.87
2018-11-28T21:38:20.331Z,28.17
2018-11-28T21:40:53.165Z,31.07
2018-11-28T21:43:23.968Z,28.03
2018-11-28T21:45:57.528Z,30.27
2018-11-28T21:48:31.422Z,31.80
2018-11-28T21:51:03.889Z,29.50
2018-11-28T21:53:34.961Z,29.47
2018-11-28T21:56:08.099Z,31.60
2018-11-28T21:58:40.878Z,28.83
2018-11-28T22:01:13.089Z,28.83
2018-11-28T22:03:43.474Z,31.87
2018-11-28T22:06:20.667Z,29.90
2018-11-28T22:08:53.428Z,29.63
2018-11-28T22:11:29.824Z,32.03
2018-11-28T22:14:01.872Z,30.77
2018-11-28T22:16:32.865Z,30.70
2018-11-28T22:19:06.550Z,30.73
2018-11-28T22:21:40.050Z,30.20
2018-11-28T22:24:14.266Z,32.13
2018-11-28T22:26:47.823Z,30.77
2018-11-28T22:29:23.772Z,31.17
2018-11-28T22:31:54.478Z,32.37
2018-11-28T22:34:25.162Z,32.40
2018-11-28T22:36:57.989Z,33.30
2018-11-28T22:39:32.835Z,30.67
2018-11-28T22:42:05.465Z,31.93
2018-11-28T22:44:36.999Z,31.83
2018-11-28T22:47:09.801Z,30.90
2018-11-28T22:49:43.202Z,31.50
2018-11-28T22:52:16.790Z,31.63
2018-11-28T22:54:48.215Z,31.47
2018-11-28T22:57:20.612Z,31.80
2018-11-28T22:59:54.867Z,32.07
2018-11-28T23:02:39.467Z,32.03
2018-11-28T23:05:14.112Z,31.50
2018-11-28T23:07:45.362Z,30.67
2018-11-28T23:10:26.807Z,30.47
2018-11-28T23:12:59.165Z,33.03
2018-11-28T23:15:31.277Z,30.47
2018-11-28T23:18:07.890Z,31.00
2018-11-28T23:20:40.370Z,33.33
2018-11-28T23:23:14.187Z,32.50
2018-11-28T23:25:45.459Z,33.00
2018-11-28T23:28:18.315Z,33.20
2018-11-28T23:30:49.275Z,30.60
2018-11-28T23:33:20.576Z,31.00
2018-11-28T23:35:53.407Z,30.77
2018-11-28T23:38:24.284Z,32.37
2018-11-28T23:40:57.004Z,31.10
2018-11-28T23:43:27.503Z,32.03
2018-11-28T23:45:58.018Z,32.27
2018-11-28T23:48:28.859Z,29.77
2018-11-28T23:50:59.654Z,29.93
2018-11-28T23:53:33.014Z,30.57
2018-11-28T23:56:06.569Z,29.27
2018-11-28T23:58:40.323Z,30.40
